sensor_id;sensor_type;location;lat;lon;timestamp;pressure;altitude;pressure_sealevel;temperature;humidity
26807;BME280;14380;49.910;6.792;2024-02-28T00:00:53;99043.66;;;7.66;100.00
26807;BME280;14380;49.910;6.792;2024-02-28T00:03:20;99055.38;;;7.09;100.00
26807;BME280;14380;49.910;6.792;2024-02-28T00:05:49;99055.47;;;7.32;100.00
26807;BME280;14380;49.910;6.792;2024-02-28T00:08:15;99053.56;;;7.35;100.00
26807;BME280;14380;49.910;6.792;2024-02-28T00:10:44;99053.19;;;6.97;100.00
26807;BME280;14380;49.910;6.792;2024-02-28T00:13:11;99056.59;;;7.01;100.00
26807;BME280;14380;49.910;6.792;2024-02-28T00:15:37;99051.56;;;7.42;100.00
26807;BME280;14380;49.910;6.792;2024-02-28T00:18:04;99049.72;;;6.96;100.00
26807;BME280;14380;49.910;6.792;2024-02-28T00:20:32;99044.53;;;7.42;100.00
26807;BME280;14380;49.910;6.792;2024-02-28T00:22:58;99049.75;;;7.44;100.00
26807;BME280;14380;49.910;6.792;2024-02-28T00:25:25;99055.44;;;7.55;100.00
26807;BME280;14380;49.910;6.792;2024-02-28T00:27:52;99048.59;;;7.27;100.00
26807;BME280;14380;49.910;6.792;2024-02-28T00:30:18;99051.50;;;7.43;100.00
26807;BME280;14380;49.910;6.792;2024-02-28T00:32:45;99051.63;;;7.40;100.00
26807;BME280;14380;49.910;6.792;2024-02-28T00:35:11;99057.22;;;6.82;100.00
26807;BME280;14380;49.910;6.792;2024-02-28T00:37:39;99052.69;;;7.11;100.00
26807;BME280;14380;49.910;6.792;2024-02-28T00:40:08;99061.47;;;7.10;100.00
26807;BME280;14380;49.910;6.792;2024-02-28T00:42:35;99056.81;;;7.18;100.00
26807;BME280;14380;49.910;6.792;2024-02-28T00:45:01;99057.50;;;7.23;100.00
26807;BME280;14380;49.910;6.792;2024-02-28T00:47:28;99060.56;;;7.11;100.00
26807;BME280;14380;49.910;6.792;2024-02-28T00:49:54;99055.00;;;6.95;100.00
26807;BME280;14380;49.910;6.792;2024-02-28T00:52:21;99053.22;;;7.21;100.00
26807;BME280;14380;49.910;6.792;2024-02-28T00:54:51;99057.38;;;7.03;100.00
26807;BME280;14380;49.910;6.792;2024-02-28T00:57:17;99059.00;;;7.31;100.00
26807;BME280;14380;49.910;6.792;2024-02-28T00:59:44;99066.84;;;7.07;100.00
26807;BME280;14380;49.910;6.792;2024-02-28T01:02:11;99065.28;;;6.77;100.00
26807;BME280;14380;49.910;6.792;2024-02-28T01:04:39;99063.44;;;7.28;100.00
26807;BME280;14380;49.910;6.792;2024-02-28T01:07:05;99069.13;;;7.16;100.00
26807;BME280;14380;49.910;6.792;2024-02-28T01:09:32;99067.78;;;6.55;100.00
26807;BME280;14380;49.910;6.792;2024-02-28T01:12:00;99066.44;;;6.94;100.00
26807;BME280;14380;49.910;6.792;2024-02-28T01:14:27;99075.38;;;6.88;100.00
26807;BME280;14380;49.910;6.792;2024-02-28T01:16:53;99068.91;;;6.73;100.00
26807;BME280;14380;49.910;6.792;2024-02-28T01:19:20;99071.97;;;6.86;100.00
26807;BME280;14380;49.910;6.792;2024-02-28T01:21:47;99068.41;;;7.12;100.00
26807;BME280;14380;49.910;6.792;2024-02-28T01:24:13;99071.44;;;7.49;100.00
26807;BME280;14380;49.910;6.792;2024-02-28T01:26:40;99074.03;;;7.27;100.00
26807;BME280;14380;49.910;6.792;2024-02-28T01:29:08;99076.72;;;6.75;100.00
26807;BME280;14380;49.910;6.792;2024-02-28T01:31:34;99068.63;;;7.30;100.00
26807;BME280;14380;49.910;6.792;2024-02-28T01:34:01;99071.31;;;6.79;100.00
26807;BME280;14380;49.910;6.792;2024-02-28T01:36:28;99068.81;;;7.25;100.00
26807;BME280;14380;49.910;6.792;2024-02-28T01:38:54;99065.88;;;7.33;100.00
26807;BME280;14380;49.910;6.792;2024-02-28T01:41:21;99077.19;;;7.35;100.00
26807;BME280;14380;49.910;6.792;2024-02-28T01:43:47;99071.44;;;7.02;100.00
26807;BME280;14380;49.910;6.792;2024-02-28T01:46:22;99074.78;;;7.29;100.00
26807;BME280;14380;49.910;6.792;2024-02-28T01:48:50;99079.38;;;7.24;100.00
26807;BME280;14380;49.910;6.792;2024-02-28T01:51:17;99080.66;;;7.12;100.00
26807;BME280;14380;49.910;6.792;2024-02-28T01:53:44;99077.59;;;7.01;100.00
26807;BME280;14380;49.910;6.792;2024-02-28T01:56:11;99076.59;;;7.03;100.00
26807;BME280;14380;49.910;6.792;2024-02-28T01:58:38;99079.03;;;6.84;100.00
26807;BME280;14380;49.910;6.792;2024-02-28T02:01:05;99079.66;;;6.65;100.00
26807;BME280;14380;49.910;6.792;2024-02-28T02:03:34;99078.22;;;7.07;100.00
26807;BME280;14380;49.910;6.792;2024-02-28T02:06:01;99080.84;;;7.07;100.00
26807;BME280;14380;49.910;6.792;2024-02-28T02:08:28;99086.09;;;6.82;100.00
26807;BME280;14380;49.910;6.792;2024-02-28T02:10:54;99089.94;;;6.97;100.00
26807;BME280;14380;49.910;6.792;2024-02-28T02:13:21;99081.00;;;6.77;100.00
26807;BME280;14380;49.910;6.792;2024-02-28T02:15:48;99080.22;;;7.24;100.00
26807;BME280;14380;49.910;6.792;2024-02-28T02:18:14;99086.59;;;6.93;100.00
26807;BME280;14380;49.910;6.792;2024-02-28T02:20:44;99090.06;;;6.42;100.00
26807;BME280;14380;49.910;6.792;2024-02-28T02:23:14;99090.16;;;6.91;100.00
26807;BME280;14380;49.910;6.792;2024-02-28T02:25:44;99088.19;;;6.97;100.00
26807;BME280;14380;49.910;6.792;2024-02-28T02:28:11;99098.09;;;6.89;100.00
26807;BME280;14380;49.910;6.792;2024-02-28T02:30:38;99097.47;;;6.82;100.00
26807;BME280;14380;49.910;6.792;2024-02-28T02:33:04;99087.84;;;7.07;100.00
26807;BME280;14380;49.910;6.792;2024-02-28T02:35:31;99092.66;;;7.19;100.00
26807;BME280;14380;49.910;6.792;2024-02-28T02:37:58;99097.50;;;6.81;100.00
26807;BME280;14380;49.910;6.792;2024-02-28T02:40:26;99106.63;;;6.44;100.00
26807;BME280;14380;49.910;6.792;2024-02-28T02:42:53;99103.66;;;6.80;100.00
26807;BME280;14380;49.910;6.792;2024-02-28T02:45:19;99105.44;;;6.52;100.00
26807;BME280;14380;49.910;6.792;2024-02-28T02:47:46;99100.03;;;6.30;100.00
26807;BME280;14380;49.910;6.792;2024-02-28T02:50:11;99094.72;;;6.60;100.00
26807;BME280;14380;49.910;6.792;2024-02-28T02:52:38;99100.88;;;6.84;100.00
26807;BME280;14380;49.910;6.792;2024-02-28T02:55:06;99089.94;;;6.97;100.00
26807;BME280;14380;49.910;6.792;2024-02-28T02:57:35;99105.06;;;6.90;100.00
26807;BME280;14380;49.910;6.792;2024-02-28T03:00:02;99090.13;;;6.65;100.00
26807;BME280;14380;49.910;6.792;2024-02-28T03:02:30;99092.63;;;6.95;100.00
26807;BME280;14380;49.910;6.792;2024-02-28T03:04:57;99082.75;;;7.02;100.00
26807;BME280;14380;49.910;6.792;2024-02-28T03:07:23;99095.78;;;7.05;100.00
26807;BME280;14380;49.910;6.792;2024-02-28T03:09:50;99096.75;;;6.77;100.00
26807;BME280;14380;49.910;6.792;2024-02-28T03:12:16;99098.19;;;6.61;100.00
26807;BME280;14380;49.910;6.792;2024-02-28T03:14:44;99103.00;;;6.46;100.00
26807;BME280;14380;49.910;6.792;2024-02-28T03:17:11;99107.50;;;5.86;100.00
26807;BME280;14380;49.910;6.792;2024-02-28T03:19:37;99100.53;;;5.85;100.00
26807;BME280;14380;49.910;6.792;2024-02-28T03:22:04;99109.06;;;6.21;100.00
26807;BME280;14380;49.910;6.792;2024-02-28T03:24:31;99115.06;;;6.79;100.00
26807;BME280;14380;49.910;6.792;2024-02-28T03:27:00;99116.72;;;6.56;100.00
26807;BME280;14380;49.910;6.792;2024-02-28T03:29:27;99107.72;;;6.89;100.00
26807;BME280;14380;49.910;6.792;2024-02-28T03:31:55;99103.38;;;6.88;100.00
26807;BME280;14380;49.910;6.792;2024-02-28T03:34:21;99096.66;;;6.80;100.00
26807;BME280;14380;49.910;6.792;2024-02-28T03:36:48;99102.44;;;6.90;100.00
26807;BME280;14380;49.910;6.792;2024-02-28T03:39:15;99110.31;;;6.90;100.00
26807;BME280;14380;49.910;6.792;2024-02-28T03:41:42;99106.75;;;6.66;100.00
26807;BME280;14380;49.910;6.792;2024-02-28T03:44:09;99114.19;;;6.53;100.00
26807;BME280;14380;49.910;6.792;2024-02-28T03:46:36;99118.06;;;6.68;100.00
26807;BME280;14380;49.910;6.792;2024-02-28T03:49:04;99126.88;;;6.65;100.00
26807;BME280;14380;49.910;6.792;2024-02-28T03:51:31;99127.19;;;6.83;100.00
26807;BME280;14380;49.910;6.792;2024-02-28T03:53:58;99125.19;;;6.90;100.00
26807;BME280;14380;49.910;6.792;2024-02-28T03:56:26;99131.22;;;6.66;100.00
26807;BME280;14380;49.910;6.792;2024-02-28T03:58:55;99143.69;;;6.60;100.00
26807;BME280;14380;49.910;6.792;2024-02-28T04:01:22;99138.00;;;6.47;100.00
26807;BME280;14380;49.910;6.792;2024-02-28T04:03:48;99140.81;;;6.40;100.00
26807;BME280;14380;49.910;6.792;2024-02-28T04:06:16;99145.22;;;6.40;100.00
26807;BME280;14380;49.910;6.792;2024-02-28T04:08:43;99141.81;;;6.36;100.00
26807;BME280;14380;49.910;6.792;2024-02-28T04:11:10;99142.81;;;6.04;100.00
26807;BME280;14380;49.910;6.792;2024-02-28T04:13:36;99149.94;;;6.29;100.00
26807;BME280;14380;49.910;6.792;2024-02-28T04:16:03;99150.84;;;6.28;100.00
26807;BME280;14380;49.910;6.792;2024-02-28T04:18:30;99151.19;;;6.70;100.00
26807;BME280;14380;49.910;6.792;2024-02-28T04:20:56;99152.63;;;6.54;100.00
26807;BME280;14380;49.910;6.792;2024-02-28T04:23:24;99161.69;;;6.70;100.00
26807;BME280;14380;49.910;6.792;2024-02-28T04:25:51;99162.75;;;6.65;100.00
26807;BME280;14380;49.910;6.792;2024-02-28T04:28:17;99162.84;;;6.62;100.00
26807;BME280;14380;49.910;6.792;2024-02-28T04:30:44;99167.25;;;6.61;100.00
26807;BME280;14380;49.910;6.792;2024-02-28T04:33:11;99154.59;;;6.74;100.00
26807;BME280;14380;49.910;6.792;2024-02-28T04:35:37;99157.16;;;6.76;100.00
26807;BME280;14380;49.910;6.792;2024-02-28T04:38:04;99149.03;;;6.83;100.00
26807;BME280;14380;49.910;6.792;2024-02-28T04:40:32;99151.91;;;6.76;100.00
26807;BME280;14380;49.910;6.792;2024-02-28T04:42:58;99153.31;;;6.86;100.00
26807;BME280;14380;49.910;6.792;2024-02-28T04:45:25;99168.00;;;6.38;100.00
26807;BME280;14380;49.910;6.792;2024-02-28T04:47:51;99168.91;;;6.08;100.00
26807;BME280;14380;49.910;6.792;2024-02-28T04:50:19;99169.31;;;5.93;100.00
26807;BME280;14380;49.910;6.792;2024-02-28T04:52:45;99169.13;;;5.99;100.00
26807;BME280;14380;49.910;6.792;2024-02-28T04:55:12;99176.59;;;6.13;100.00
26807;BME280;14380;49.910;6.792;2024-02-28T04:57:41;99171.44;;;6.40;100.00
26807;BME280;14380;49.910;6.792;2024-02-28T05:00:08;99175.47;;;6.50;100.00
26807;BME280;14380;49.910;6.792;2024-02-28T05:02:35;99180.47;;;6.58;100.00
26807;BME280;14380;49.910;6.792;2024-02-28T05:05:01;99181.69;;;6.46;100.00
26807;BME280;14380;49.910;6.792;2024-02-28T05:07:28;99178.00;;;6.25;100.00
26807;BME280;14380;49.910;6.792;2024-02-28T05:09:55;99182.56;;;6.18;100.00
26807;BME280;14380;49.910;6.792;2024-02-28T05:12:21;99179.03;;;6.19;100.00
26807;BME280;14380;49.910;6.792;2024-02-28T05:14:49;99186.84;;;6.21;100.00
26807;BME280;14380;49.910;6.792;2024-02-28T05:17:16;99186.34;;;6.38;100.00
26807;BME280;14380;49.910;6.792;2024-02-28T05:19:42;99190.81;;;6.34;100.00
26807;BME280;14380;49.910;6.792;2024-02-28T05:22:09;99195.13;;;6.37;100.00
26807;BME280;14380;49.910;6.792;2024-02-28T05:24:36;99188.00;;;6.40;100.00
26807;BME280;14380;49.910;6.792;2024-02-28T05:27:03;99186.56;;;6.59;100.00
26807;BME280;14380;49.910;6.792;2024-02-28T05:29:29;99188.00;;;6.69;100.00
26807;BME280;14380;49.910;6.792;2024-02-28T05:31:57;99192.00;;;6.52;100.00
26807;BME280;14380;49.910;6.792;2024-02-28T05:34:24;99193.91;;;6.47;100.00
26807;BME280;14380;49.910;6.792;2024-02-28T05:36:50;99207.22;;;6.41;100.00
26807;BME280;14380;49.910;6.792;2024-02-28T05:39:17;99210.19;;;6.59;100.00
26807;BME280;14380;49.910;6.792;2024-02-28T05:41:45;99221.09;;;6.16;100.00
26807;BME280;14380;49.910;6.792;2024-02-28T05:44:12;99224.97;;;6.33;100.00
26807;BME280;14380;49.910;6.792;2024-02-28T05:46:39;99229.00;;;5.83;100.00
26807;BME280;14380;49.910;6.792;2024-02-28T05:49:07;99226.25;;;5.88;100.00
26807;BME280;14380;49.910;6.792;2024-02-28T05:51:34;99221.16;;;6.15;100.00
26807;BME280;14380;49.910;6.792;2024-02-28T05:54:01;99228.00;;;5.87;100.00
26807;BME280;14380;49.910;6.792;2024-02-28T05:56:27;99230.34;;;5.96;100.00
26807;BME280;14380;49.910;6.792;2024-02-28T05:58:55;99232.59;;;5.47;100.00
26807;BME280;14380;49.910;6.792;2024-02-28T06:01:21;99235.66;;;5.30;100.00
26807;BME280;14380;49.910;6.792;2024-02-28T06:03:48;99241.03;;;5.24;100.00
26807;BME280;14380;49.910;6.792;2024-02-28T06:06:17;99244.78;;;5.48;100.00
26807;BME280;14380;49.910;6.792;2024-02-28T06:08:44;99245.63;;;5.82;100.00
26807;BME280;14380;49.910;6.792;2024-02-28T06:11:10;99246.88;;;5.99;100.00
26807;BME280;14380;49.910;6.792;2024-02-28T06:13:40;99253.25;;;5.91;100.00
26807;BME280;14380;49.910;6.792;2024-02-28T06:16:07;99259.09;;;6.00;100.00
26807;BME280;14380;49.910;6.792;2024-02-28T06:18:33;99257.13;;;6.09;100.00
26807;BME280;14380;49.910;6.792;2024-02-28T06:21:00;99267.00;;;5.98;100.00
26807;BME280;14380;49.910;6.792;2024-02-28T06:23:28;99267.47;;;6.14;100.00
26807;BME280;14380;49.910;6.792;2024-02-28T06:25:55;99263.22;;;5.77;100.00
26807;BME280;14380;49.910;6.792;2024-02-28T06:28:21;99266.50;;;5.85;100.00
26807;BME280;14380;49.910;6.792;2024-02-28T06:30:48;99269.28;;;5.79;100.00
26807;BME280;14380;49.910;6.792;2024-02-28T06:33:14;99271.50;;;5.94;100.00
26807;BME280;14380;49.910;6.792;2024-02-28T06:35:41;99281.06;;;5.95;100.00
26807;BME280;14380;49.910;6.792;2024-02-28T06:38:07;99283.16;;;6.16;100.00
26807;BME280;14380;49.910;6.792;2024-02-28T06:40:35;99280.06;;;6.00;100.00
26807;BME280;14380;49.910;6.792;2024-02-28T06:43:03;99282.91;;;5.92;100.00
26807;BME280;14380;49.910;6.792;2024-02-28T06:45:30;99287.56;;;5.80;100.00
26807;BME280;14380;49.910;6.792;2024-02-28T06:47:57;99285.19;;;5.73;100.00
26807;BME280;14380;49.910;6.792;2024-02-28T06:50:23;99291.16;;;5.45;100.00
26807;BME280;14380;49.910;6.792;2024-02-28T06:52:50;99284.47;;;5.99;100.00
26807;BME280;14380;49.910;6.792;2024-02-28T06:55:18;99289.69;;;5.33;100.00
26807;BME280;14380;49.910;6.792;2024-02-28T06:57:46;99293.53;;;5.18;100.00
26807;BME280;14380;49.910;6.792;2024-02-28T07:00:13;99300.75;;;5.44;100.00
26807;BME280;14380;49.910;6.792;2024-02-28T07:02:41;99296.88;;;5.25;100.00
26807;BME280;14380;49.910;6.792;2024-02-28T07:05:08;99296.50;;;5.40;100.00
26807;BME280;14380;49.910;6.792;2024-02-28T07:07:34;99295.34;;;5.50;100.00
26807;BME280;14380;49.910;6.792;2024-02-28T07:10:02;99297.06;;;5.17;100.00
26807;BME280;14380;49.910;6.792;2024-02-28T07:12:29;99303.78;;;5.29;100.00
26807;BME280;14380;49.910;6.792;2024-02-28T07:14:59;99301.25;;;5.24;100.00
26807;BME280;14380;49.910;6.792;2024-02-28T07:17:25;99305.38;;;4.97;100.00
26807;BME280;14380;49.910;6.792;2024-02-28T07:19:52;99309.41;;;5.12;100.00
26807;BME280;14380;49.910;6.792;2024-02-28T07:22:19;99303.66;;;5.33;100.00
26807;BME280;14380;49.910;6.792;2024-02-28T07:24:46;99301.84;;;5.70;100.00
26807;BME280;14380;49.910;6.792;2024-02-28T07:27:12;99309.88;;;5.64;100.00
26807;BME280;14380;49.910;6.792;2024-02-28T07:29:39;99305.16;;;5.77;100.00
26807;BME280;14380;49.910;6.792;2024-02-28T07:32:07;99308.22;;;5.60;100.00
26807;BME280;14380;49.910;6.792;2024-02-28T07:34:33;99304.84;;;5.88;100.00
26807;BME280;14380;49.910;6.792;2024-02-28T07:37:00;99302.88;;;5.96;100.00
26807;BME280;14380;49.910;6.792;2024-02-28T07:39:27;99308.25;;;5.58;100.00
26807;BME280;14380;49.910;6.792;2024-02-28T07:41:54;99314.38;;;5.57;100.00
26807;BME280;14380;49.910;6.792;2024-02-28T07:44:20;99311.66;;;5.62;100.00
26807;BME280;14380;49.910;6.792;2024-02-28T07:46:47;99319.16;;;5.76;100.00
26807;BME280;14380;49.910;6.792;2024-02-28T07:49:17;99322.66;;;5.42;100.00
26807;BME280;14380;49.910;6.792;2024-02-28T07:51:43;99321.97;;;5.33;100.00
26807;BME280;14380;49.910;6.792;2024-02-28T07:54:10;99319.81;;;5.49;100.00
26807;BME280;14380;49.910;6.792;2024-02-28T07:56:36;99318.56;;;5.64;100.00
26807;BME280;14380;49.910;6.792;2024-02-28T07:59:03;99324.53;;;5.71;100.00
26807;BME280;14380;49.910;6.792;2024-02-28T08:01:30;99329.56;;;5.77;100.00
26807;BME280;14380;49.910;6.792;2024-02-28T08:03:57;99325.34;;;5.73;100.00
26807;BME280;14380;49.910;6.792;2024-02-28T08:06:26;99326.63;;;5.91;100.00
26807;BME280;14380;49.910;6.792;2024-02-28T08:08:53;99335.19;;;5.63;100.00
26807;BME280;14380;49.910;6.792;2024-02-28T08:11:21;99331.50;;;5.71;100.00
26807;BME280;14380;49.910;6.792;2024-02-28T08:13:48;99333.59;;;5.58;100.00
26807;BME280;14380;49.910;6.792;2024-02-28T08:16:15;99340.72;;;5.86;100.00
26807;BME280;14380;49.910;6.792;2024-02-28T08:18:41;99343.47;;;5.46;100.00
26807;BME280;14380;49.910;6.792;2024-02-28T08:21:08;99353.72;;;5.19;100.00
26807;BME280;14380;49.910;6.792;2024-02-28T08:23:36;99359.03;;;5.16;100.00
26807;BME280;14380;49.910;6.792;2024-02-28T08:26:03;99354.97;;;5.41;100.00
26807;BME280;14380;49.910;6.792;2024-02-28T08:28:30;99344.09;;;5.91;100.00
26807;BME280;14380;49.910;6.792;2024-02-28T08:30:56;99339.00;;;5.85;100.00
26807;BME280;14380;49.910;6.792;2024-02-28T08:33:23;99345.22;;;5.80;100.00
26807;BME280;14380;49.910;6.792;2024-02-28T08:35:49;99351.34;;;5.79;100.00
26807;BME280;14380;49.910;6.792;2024-02-28T08:38:16;99348.94;;;5.73;100.00
26807;BME280;14380;49.910;6.792;2024-02-28T08:40:44;99352.84;;;5.55;100.00
26807;BME280;14380;49.910;6.792;2024-02-28T08:43:12;99354.81;;;5.81;100.00
26807;BME280;14380;49.910;6.792;2024-02-28T08:45:39;99348.44;;;5.57;100.00
26807;BME280;14380;49.910;6.792;2024-02-28T08:48:07;99352.09;;;5.85;100.00
26807;BME280;14380;49.910;6.792;2024-02-28T08:50:33;99347.06;;;6.12;100.00
26807;BME280;14380;49.910;6.792;2024-02-28T08:53:00;99352.22;;;6.15;100.00
26807;BME280;14380;49.910;6.792;2024-02-28T08:55:26;99357.41;;;6.16;100.00
26807;BME280;14380;49.910;6.792;2024-02-28T08:57:55;99354.91;;;6.43;100.00
26807;BME280;14380;49.910;6.792;2024-02-28T09:00:22;99357.53;;;6.43;100.00
26807;BME280;14380;49.910;6.792;2024-02-28T09:02:48;99356.47;;;6.50;100.00
26807;BME280;14380;49.910;6.792;2024-02-28T09:05:15;99363.66;;;6.44;100.00
26807;BME280;14380;49.910;6.792;2024-02-28T09:07:42;99369.41;;;6.25;100.00
26807;BME280;14380;49.910;6.792;2024-02-28T09:10:09;99364.75;;;6.03;100.00
26807;BME280;14380;49.910;6.792;2024-02-28T09:12:36;99371.94;;;5.95;100.00
26807;BME280;14380;49.910;6.792;2024-02-28T09:15:05;99365.59;;;6.04;100.00
26807;BME280;14380;49.910;6.792;2024-02-28T09:17:31;99368.25;;;6.35;100.00
26807;BME280;14380;49.910;6.792;2024-02-28T09:19:58;99370.13;;;6.62;100.00
26807;BME280;14380;49.910;6.792;2024-02-28T09:43:00;99378.34;;;7.09;100.00
26807;BME280;14380;49.910;6.792;2024-02-28T09:45:26;99375.75;;;6.79;100.00
26807;BME280;14380;49.910;6.792;2024-02-28T09:47:55;99385.56;;;6.73;100.00
26807;BME280;14380;49.910;6.792;2024-02-28T09:50:22;99386.88;;;7.16;100.00
26807;BME280;14380;49.910;6.792;2024-02-28T09:52:49;99390.75;;;7.04;100.00
26807;BME280;14380;49.910;6.792;2024-02-28T09:55:16;99392.19;;;7.14;100.00
26807;BME280;14380;49.910;6.792;2024-02-28T09:57:43;99396.03;;;7.31;100.00
26807;BME280;14380;49.910;6.792;2024-02-28T10:00:13;99398.16;;;7.20;100.00
26807;BME280;14380;49.910;6.792;2024-02-28T10:02:40;99400.78;;;7.20;100.00
26807;BME280;14380;49.910;6.792;2024-02-28T10:05:08;99404.63;;;7.36;100.00
26807;BME280;14380;49.910;6.792;2024-02-28T10:07:35;99402.19;;;7.30;100.00
26807;BME280;14380;49.910;6.792;2024-02-28T10:10:02;99396.13;;;7.56;100.00
26807;BME280;14380;49.910;6.792;2024-02-28T10:12:29;99397.44;;;7.70;100.00
26807;BME280;14380;49.910;6.792;2024-02-28T10:14:55;99400.16;;;7.11;100.00
26807;BME280;14380;49.910;6.792;2024-02-28T10:17:23;99413.63;;;6.39;100.00
26807;BME280;14380;49.910;6.792;2024-02-28T10:19:52;99426.09;;;6.31;100.00
26807;BME280;14380;49.910;6.792;2024-02-28T10:22:18;99425.25;;;6.92;100.00
26807;BME280;14380;49.910;6.792;2024-02-28T10:24:45;99425.53;;;7.41;100.00
26807;BME280;14380;49.910;6.792;2024-02-28T10:27:15;99425.97;;;6.67;100.00
26807;BME280;14380;49.910;6.792;2024-02-28T10:29:42;99422.22;;;7.06;100.00
26807;BME280;14380;49.910;6.792;2024-02-28T10:32:09;99425.03;;;6.38;100.00
26807;BME280;14380;49.910;6.792;2024-02-28T10:34:38;99428.72;;;6.31;100.00
26807;BME280;14380;49.910;6.792;2024-02-28T10:37:05;99426.38;;;6.83;100.00
26807;BME280;14380;49.910;6.792;2024-02-28T10:39:32;99425.16;;;6.65;100.00
26807;BME280;14380;49.910;6.792;2024-02-28T10:42:00;99418.91;;;6.69;100.00
26807;BME280;14380;49.910;6.792;2024-02-28T10:44:27;99418.59;;;6.48;100.00
26807;BME280;14380;49.910;6.792;2024-02-28T10:46:54;99413.66;;;6.69;100.00
26807;BME280;14380;49.910;6.792;2024-02-28T10:49:20;99405.06;;;7.24;100.00
26807;BME280;14380;49.910;6.792;2024-02-28T10:51:49;99407.03;;;7.16;100.00
26807;BME280;14380;49.910;6.792;2024-02-28T10:54:19;99407.03;;;7.16;100.00
26807;BME280;14380;49.910;6.792;2024-02-28T10:56:47;99404.53;;;6.82;100.00
26807;BME280;14380;49.910;6.792;2024-02-28T10:59:15;99401.25;;;7.04;100.00
26807;BME280;14380;49.910;6.792;2024-02-28T11:01:43;99402.59;;;6.88;100.00
26807;BME280;14380;49.910;6.792;2024-02-28T11:04:12;99411.50;;;7.40;100.00
26807;BME280;14380;49.910;6.792;2024-02-28T11:06:49;99399.81;;;6.94;100.00
26807;BME280;14380;49.910;6.792;2024-02-28T11:09:19;99396.00;;;7.04;100.00
26807;BME280;14380;49.910;6.792;2024-02-28T11:11:48;99393.00;;;6.88;100.00
26807;BME280;14380;49.910;6.792;2024-02-28T11:14:15;99391.78;;;6.70;100.00
26807;BME280;14380;49.910;6.792;2024-02-28T11:16:42;99402.94;;;6.77;100.00
26807;BME280;14380;49.910;6.792;2024-02-28T11:19:19;99399.19;;;7.14;100.00
26807;BME280;14380;49.910;6.792;2024-02-28T11:21:53;99393.00;;;7.17;100.00
26807;BME280;14380;49.910;6.792;2024-02-28T11:24:22;99396.44;;;7.47;100.00
26807;BME280;14380;49.910;6.792;2024-02-28T11:26:50;99389.38;;;7.74;100.00
26807;BME280;14380;49.910;6.792;2024-02-28T11:29:22;99386.56;;;7.81;100.00
26807;BME280;14380;49.910;6.792;2024-02-28T11:31:50;99395.13;;;8.13;100.00
26807;BME280;14380;49.910;6.792;2024-02-28T11:34:16;99384.53;;;8.40;100.00
26807;BME280;14380;49.910;6.792;2024-02-28T11:36:43;99388.50;;;8.01;100.00
26807;BME280;14380;49.910;6.792;2024-02-28T11:39:14;99376.22;;;8.27;99.43
26807;BME280;14380;49.910;6.792;2024-02-28T11:41:41;99378.66;;;8.08;100.00
26807;BME280;14380;49.910;6.792;2024-02-28T11:44:07;99375.94;;;8.34;96.30
26807;BME280;14380;49.910;6.792;2024-02-28T11:46:34;99377.94;;;8.28;97.99
26807;BME280;14380;49.910;6.792;2024-02-28T11:49:01;99380.41;;;8.32;98.64
26807;BME280;14380;49.910;6.792;2024-02-28T11:51:27;99376.84;;;8.33;98.47
26807;BME280;14380;49.910;6.792;2024-02-28T11:53:54;99375.19;;;8.56;97.02
26807;BME280;14380;49.910;6.792;2024-02-28T11:56:22;99372.78;;;8.50;96.09
26807;BME280;14380;49.910;6.792;2024-02-28T11:58:49;99370.97;;;8.52;95.31
26807;BME280;14380;49.910;6.792;2024-02-28T12:01:16;99363.84;;;8.78;95.26
26807;BME280;14380;49.910;6.792;2024-02-28T12:03:45;99364.94;;;8.72;95.35
26807;BME280;14380;49.910;6.792;2024-02-28T12:06:12;99369.31;;;8.48;96.72
26807;BME280;14380;49.910;6.792;2024-02-28T12:08:38;99366.13;;;8.87;95.33
26807;BME280;14380;49.910;6.792;2024-02-28T12:11:06;99367.56;;;9.18;95.71
26807;BME280;14380;49.910;6.792;2024-02-28T12:13:34;99344.28;;;9.93;94.23
26807;BME280;14380;49.910;6.792;2024-02-28T12:16:01;99342.59;;;9.49;93.72
26807;BME280;14380;49.910;6.792;2024-02-28T12:18:28;99348.91;;;8.78;96.19
26807;BME280;14380;49.910;6.792;2024-02-28T12:20:54;99343.59;;;9.02;95.79
26807;BME280;14380;49.910;6.792;2024-02-28T12:23:21;99345.50;;;9.21;94.95
26807;BME280;14380;49.910;6.792;2024-02-28T12:25:47;99338.47;;;9.64;95.93
26807;BME280;14380;49.910;6.792;2024-02-28T12:28:14;99337.22;;;9.30;93.26
26807;BME280;14380;49.910;6.792;2024-02-28T12:30:42;99326.53;;;9.97;91.95
26807;BME280;14380;49.910;6.792;2024-02-28T12:33:10;99327.47;;;9.75;90.09
26807;BME280;14380;49.910;6.792;2024-02-28T12:35:37;99323.50;;;9.44;92.80
26807;BME280;14380;49.910;6.792;2024-02-28T12:38:04;99318.25;;;9.86;90.71
26807;BME280;14380;49.910;6.792;2024-02-28T12:40:31;99317.09;;;9.91;92.69
26807;BME280;14380;49.910;6.792;2024-02-28T12:42:57;99307.88;;;10.41;91.56
26807;BME280;14380;49.910;6.792;2024-02-28T12:45:24;99314.94;;;10.41;90.76
26807;BME280;14380;49.910;6.792;2024-02-28T12:47:52;99310.00;;;10.33;88.89
26807;BME280;14380;49.910;6.792;2024-02-28T12:50:22;99304.75;;;10.12;88.98
26807;BME280;14380;49.910;6.792;2024-02-28T12:52:49;99302.44;;;10.45;89.42
26807;BME280;14380;49.910;6.792;2024-02-28T12:55:18;99290.34;;;10.79;88.38
26807;BME280;14380;49.910;6.792;2024-02-28T12:57:45;99294.09;;;10.92;89.07
26807;BME280;14380;49.910;6.792;2024-02-28T13:00:12;99291.56;;;10.52;86.12
26807;BME280;14380;49.910;6.792;2024-02-28T13:02:39;99288.00;;;10.90;85.96
26807;BME280;14380;49.910;6.792;2024-02-28T13:05:07;99285.72;;;11.01;86.26
26807;BME280;14380;49.910;6.792;2024-02-28T13:07:34;99285.06;;;11.51;85.60
26807;BME280;14380;49.910;6.792;2024-02-28T13:10:01;99285.00;;;11.52;83.92
26807;BME280;14380;49.910;6.792;2024-02-28T13:12:30;99277.03;;;11.35;84.31
26807;BME280;14380;49.910;6.792;2024-02-28T13:14:57;99272.75;;;11.85;82.78
26807;BME280;14380;49.910;6.792;2024-02-28T13:17:24;99266.53;;;11.68;82.58
26807;BME280;14380;49.910;6.792;2024-02-28T13:19:51;99271.44;;;11.76;82.26